Time;durP1;ratioP1;P1;durP2;ratioP2;P2;SDS_P1;SDS_P2;PMS_P1;PMS_P2;Temp;Humidity;BMP_temperature;BMP_pressure;BME280_temperature;BME280_humidity;BME280_pressure;Samples;Min_cycle;Max_cycle;Signal;HPM_P1;HPM_P2
2023/03/09 00:01:26;;;;;;;13.00;9.25;;;1.80;99.90;;;;;;5020196;28;20037;-48
2023/03/09 00:03:52;;;;;;;11.18;9.05;;;1.80;99.90;;;;;;5043450;28;20108;-46
2023/03/09 00:06:18;;;;;;;12.27;8.67;;;1.90;99.90;;;;;;5037904;28;20066;-47
2023/03/09 00:08:44;;;;;;;12.55;8.95;;;1.90;99.90;;;;;;5035483;28;20049;-47
2023/03/09 00:11:10;;;;;;;13.48;10.40;;;1.90;99.90;;;;;;5038201;28;20044;-47
2023/03/09 00:13:35;;;;;;;12.25;9.15;;;1.90;99.90;;;;;;5037222;28;20037;-47
2023/03/09 00:16:14;;;;;;;14.03;9.87;;;1.90;99.90;;;;;;5042561;28;20509;-48
2023/03/09 00:18:40;;;;;;;13.23;9.20;;;1.90;99.90;;;;;;5039497;28;20647;-48
2023/03/09 00:21:07;;;;;;;15.80;10.52;;;1.90;99.90;;;;;;5042990;28;21252;-47
2023/03/09 00:23:33;;;;;;;13.02;10.02;;;1.90;99.90;;;;;;5034410;28;20076;-49
2023/03/09 00:26:04;;;;;;;13.98;9.48;;;1.90;99.90;;;;;;5034915;28;20041;-47
2023/03/09 00:28:30;;;;;;;14.25;10.55;;;1.90;99.90;;;;;;5033638;28;20044;-47
2023/03/09 00:31:03;;;;;;;14.87;10.33;;;1.90;99.90;;;;;;5032556;28;20045;-47
2023/03/09 00:33:29;;;;;;;14.20;10.63;;;1.80;99.90;;;;;;5036683;28;20322;-48
2023/03/09 00:35:55;;;;;;;14.27;10.38;;;1.80;99.90;;;;;;5040310;28;20293;-48
2023/03/09 00:38:20;;;;;;;17.87;11.63;;;1.80;99.90;;;;;;5032225;28;20387;-48
2023/03/09 00:40:46;;;;;;;15.63;11.53;;;1.80;99.90;;;;;;5046846;28;20044;-48
2023/03/09 00:43:11;;;;;;;15.67;11.33;;;1.80;99.90;;;;;;5043775;28;20121;-47
2023/03/09 00:45:37;;;;;;;16.80;11.60;;;1.80;99.90;;;;;;5051277;28;20037;-47
2023/03/09 00:48:03;;;;;;;17.53;12.10;;;1.80;99.90;;;;;;5043181;28;20033;-47
2023/03/09 00:50:28;;;;;;;16.98;11.32;;;1.70;99.90;;;;;;5043270;28;20069;-46
2023/03/09 00:52:54;;;;;;;19.03;12.33;;;1.70;99.90;;;;;;5046516;28;20025;-48
2023/03/09 00:55:19;;;;;;;16.87;11.27;;;1.70;99.90;;;;;;5035465;28;20049;-48
2023/03/09 00:57:45;;;;;;;15.33;11.20;;;1.70;99.90;;;;;;5035015;28;20044;-48
2023/03/09 01:00:11;;;;;;;18.77;13.60;;;1.70;99.90;;;;;;5033919;28;20510;-46
2023/03/09 01:02:37;;;;;;;17.10;11.80;;;1.60;99.90;;;;;;5040627;28;20048;-48
2023/03/09 01:05:03;;;;;;;17.50;11.93;;;1.70;99.90;;;;;;5039156;28;20041;-48
2023/03/09 01:07:30;;;;;;;18.27;12.77;;;1.60;99.90;;;;;;5046943;28;20068;-48
2023/03/09 01:09:55;;;;;;;;;;;1.60;99.90;;;;;;5039587;28;20323;-47
2023/03/09 01:12:21;;;;;;;14.73;10.65;;;1.60;99.90;;;;;;5033752;28;19987;-48
2023/03/09 01:14:48;;;;;;;19.20;12.93;;;1.60;99.90;;;;;;5034709;28;20037;-46
2023/03/09 01:17:14;;;;;;;19.20;13.02;;;1.60;99.90;;;;;;5040382;28;20063;-47
2023/03/09 01:19:39;;;;;;;16.40;11.63;;;1.60;99.90;;;;;;5044746;28;20112;-47
2023/03/09 01:22:05;;;;;;;16.77;12.07;;;1.50;99.90;;;;;;5048143;28;20032;-47
2023/03/09 01:24:30;;;;;;;17.53;12.70;;;1.50;99.90;;;;;;5048408;28;20037;-48
2023/03/09 01:26:56;;;;;;;17.50;12.33;;;1.50;99.90;;;;;;5046987;28;20090;-47
2023/03/09 01:29:22;;;;;;;20.00;12.80;;;1.50;99.90;;;;;;5043270;28;20045;-48
2023/03/09 01:31:47;;;;;;;17.10;11.47;;;1.50;99.90;;;;;;5036085;28;20033;-48
2023/03/09 01:34:14;;;;;;;18.00;12.80;;;1.50;99.90;;;;;;5036188;28;20061;-46
2023/03/09 01:36:40;;;;;;;18.88;12.35;;;1.50;99.90;;;;;;5034799;28;20446;-47
2023/03/09 01:39:06;;;;;;;18.47;11.90;;;1.50;99.90;;;;;;5037905;28;20068;-48
2023/03/09 01:41:31;;;;;;;16.23;12.27;;;1.50;99.90;;;;;;5033592;28;20033;-46
2023/03/09 01:43:57;;;;;;;17.23;11.80;;;1.50;99.90;;;;;;5043443;28;20517;-49
2023/03/09 01:46:47;;;;;;;19.80;12.57;;;1.40;99.90;;;;;;5038324;28;20034;-46
2023/03/09 01:49:48;;;;;;;18.08;12.20;;;1.50;99.90;;;;;;5047147;28;20031;-46
2023/03/09 01:52:24;;;;;;;20.73;13.63;;;1.40;99.90;;;;;;5024906;28;20041;-48
2023/03/09 01:54:52;;;;;;;20.33;14.55;;;1.40;99.90;;;;;;5035980;28;20053;-47
2023/03/09 01:57:28;;;;;;;21.20;12.20;;;1.40;99.90;;;;;;5035462;28;20334;-47
2023/03/09 01:59:59;;;;;;;18.17;12.00;;;1.40;99.90;;;;;;5036106;28;20037;-47
2023/03/09 02:02:28;;;;;;;21.33;13.80;;;1.40;99.90;;;;;;5042376;28;20048;-48
2023/03/09 02:04:59;;;;;;;17.48;12.85;;;1.40;99.90;;;;;;5046453;28;20579;-48
2023/03/09 02:07:27;;;;;;;21.17;13.63;;;1.40;99.90;;;;;;5037547;28;20044;-46
2023/03/09 02:10:02;;;;;;;16.55;13.00;;;1.40;99.90;;;;;;5034158;28;20510;-47
2023/03/09 02:12:28;;;;;;;18.85;13.25;;;1.40;99.90;;;;;;5048963;28;20029;-46
2023/03/09 02:14:54;;;;;;;19.58;13.35;;;1.40;99.90;;;;;;5040419;28;20033;-48
2023/03/09 02:17:22;;;;;;;20.33;13.75;;;1.40;99.90;;;;;;5040163;28;20045;-48
2023/03/09 02:20:52;;;;;;;20.88;14.60;;;1.40;99.90;;;;;;5037903;28;20483;-47
2023/03/09 02:23:52;;;;;;;19.10;13.10;;;1.40;99.90;;;;;;4926965;28;20588;-46
2023/03/09 02:26:39;;;;;;;17.60;11.70;;;1.40;99.90;;;;;;5033599;28;20048;-48
2023/03/09 02:29:05;;;;;;;15.32;10.98;;;1.40;99.90;;;;;;5038883;28;20040;-47
2023/03/09 02:31:32;;;;;;;17.10;12.48;;;1.40;99.90;;;;;;5034242;28;20029;-47
2023/03/09 02:33:58;;;;;;;18.27;12.68;;;1.40;99.90;;;;;;5033783;28;20403;-47
2023/03/09 02:36:23;;;;;;;16.53;11.70;;;1.40;99.90;;;;;;5032600;28;20041;-48
2023/03/09 02:38:50;;;;;;;18.77;12.60;;;1.40;99.90;;;;;;5032884;28;20033;-47
2023/03/09 02:41:17;;;;;;;19.30;13.23;;;1.40;99.90;;;;;;5034036;28;20045;-47
2023/03/09 02:43:52;;;;;;;16.35;10.75;;;1.40;99.90;;;;;;5032658;28;20111;-48
2023/03/09 02:46:18;;;;;;;17.42;12.15;;;1.40;99.90;;;;;;5036098;28;20034;-46
2023/03/09 02:48:44;;;;;;;16.15;11.93;;;1.40;99.90;;;;;;5030609;28;20033;-48
2023/03/09 02:51:09;;;;;;;21.20;14.17;;;1.40;99.90;;;;;;5032621;28;20100;-48
2023/03/09 02:53:35;;;;;;;21.27;13.13;;;1.40;99.90;;;;;;5033916;28;20307;-48
2023/03/09 02:56:02;;;;;;;21.33;14.23;;;1.40;99.90;;;;;;5031617;28;20600;-46
2023/03/09 02:58:27;;;;;;;21.17;13.38;;;1.40;99.90;;;;;;5030718;28;20457;-48
2023/03/09 03:00:53;;;;;;;18.57;13.37;;;1.40;99.90;;;;;;5040895;28;20029;-47
2023/03/09 03:03:20;;;;;;;19.33;13.45;;;1.40;99.90;;;;;;5033213;28;20434;-47
2023/03/09 03:05:46;;;;;;;;;;;1.40;99.90;;;;;;5043575;28;20384;-48
2023/03/09 03:08:11;;;;;;;20.48;12.55;;;1.40;99.90;;;;;;5042724;28;19921;-49
2023/03/09 03:10:37;;;;;;;21.87;13.97;;;1.40;99.90;;;;;;5035656;28;20087;-48
2023/03/09 03:13:03;;;;;;;21.17;15.00;;;1.40;99.90;;;;;;5032348;28;20034;-48
2023/03/09 03:15:28;;;;;;;20.07;12.53;;;1.40;99.90;;;;;;5032594;28;20038;-47
2023/03/09 03:17:54;;;;;;;24.00;14.87;;;1.40;99.90;;;;;;5031702;28;20045;-47
2023/03/09 03:20:20;;;;;;;22.83;15.70;;;1.40;99.90;;;;;;5031501;28;20056;-47
2023/03/09 03:22:46;;;;;;;22.33;15.00;;;1.40;99.90;;;;;;5033905;28;20190;-48
2023/03/09 03:25:12;;;;;;;21.77;14.53;;;1.40;99.90;;;;;;5046856;28;20041;-48
2023/03/09 03:27:37;;;;;;;23.42;15.57;;;1.40;99.90;;;;;;5037632;28;20025;-47
2023/03/09 03:30:04;;;;;;;22.20;14.97;;;1.40;99.90;;;;;;5037396;28;20414;-48
2023/03/09 03:32:29;;;;;;;;;;;1.40;99.90;;;;;;5040782;28;20853;-47
2023/03/09 03:34:55;;;;;;;22.20;14.02;;;1.40;99.90;;;;;;5041951;28;19948;-48
2023/03/09 03:37:21;;;;;;;25.00;16.48;;;1.40;99.90;;;;;;5041472;28;20036;-47
2023/03/09 03:39:47;;;;;;;23.67;16.20;;;1.40;99.90;;;;;;5042266;28;20494;-48
2023/03/09 03:42:13;;;;;;;25.20;16.80;;;1.40;99.90;;;;;;5035323;28;20044;-48
2023/03/09 03:44:39;;;;;;;25.17;16.97;;;1.40;99.90;;;;;;5030599;28;20518;-46
2023/03/09 03:47:04;;;;;;;27.80;17.80;;;1.40;99.90;;;;;;5028942;28;20064;-47
2023/03/09 03:49:30;;;;;;;27.70;17.58;;;1.40;99.90;;;;;;5030113;28;20084;-46
2023/03/09 03:51:56;;;;;;;27.13;17.80;;;1.40;99.90;;;;;;5042174;28;20592;-47
2023/03/09 03:54:21;;;;;;;25.97;18.43;;;1.40;99.90;;;;;;5038297;28;20320;-48
2023/03/09 03:56:47;;;;;;;28.97;18.63;;;1.40;99.90;;;;;;5032813;28;20033;-46
2023/03/09 03:59:13;;;;;;;29.30;18.27;;;1.40;99.90;;;;;;5035544;28;20091;-47
2023/03/09 04:01:38;;;;;;;31.37;18.43;;;1.40;99.90;;;;;;5041827;28;20048;-45
2023/03/09 04:04:04;;;;;;;25.90;17.93;;;1.40;99.90;;;;;;5034372;28;20578;-48
2023/03/09 04:06:32;;;;;;;29.37;19.83;;;1.40;99.90;;;;;;5041625;28;20047;-46
2023/03/09 04:08:58;;;;;;;27.80;18.10;;;1.50;99.90;;;;;;5032283;28;20371;-47
2023/03/09 04:11:23;;;;;;;26.25;18.00;;;1.50;99.90;;;;;;5037890;28;20037;-47
2023/03/09 04:13:50;;;;;;;29.85;18.45;;;1.40;99.90;;;;;;5035650;28;20259;-47
2023/03/09 04:16:16;;;;;;;29.58;18.85;;;1.50;99.90;;;;;;5031833;28;20037;-48
2023/03/09 04:18:42;;;;;;;25.13;17.23;;;1.50;99.90;;;;;;5042621;28;20494;-47
2023/03/09 04:21:08;;;;;;;27.60;17.83;;;1.50;99.90;;;;;;5041912;28;20115;-47
2023/03/09 04:23:33;;;;;;;26.92;18.08;;;1.50;99.90;;;;;;5032926;28;20049;-47
2023/03/09 04:26:01;;;;;;;27.23;18.77;;;1.50;99.90;;;;;;5032574;28;20037;-45
2023/03/09 04:28:26;;;;;;;26.00;18.40;;;1.50;99.90;;;;;;5030537;28;20410;-47
2023/03/09 04:30:52;;;;;;;31.10;16.20;;;1.50;99.90;;;;;;5033770;28;20036;-47
2023/03/09 04:33:18;;;;;;;29.02;20.35;;;1.50;99.90;;;;;;5036973;28;20034;-48
2023/03/09 04:35:44;;;;;;;29.20;18.30;;;1.50;99.90;;;;;;5040801;28;20037;-48
2023/03/09 04:38:10;;;;;;;29.57;17.80;;;1.50;99.90;;;;;;5037304;28;20327;-48
2023/03/09 04:40:36;;;;;;;28.00;19.33;;;1.50;99.90;;;;;;5037538;28;20037;-47
2023/03/09 04:43:02;;;;;;;25.98;18.00;;;1.50;99.90;;;;;;5045188;28;20041;-48
2023/03/09 04:45:28;;;;;;;27.23;18.25;;;1.50;99.90;;;;;;5036832;28;20033;-47
2023/03/09 04:47:54;;;;;;;29.52;18.95;;;1.50;99.90;;;;;;5038454;28;20173;-48
2023/03/09 04:50:19;;;;;;;26.27;18.83;;;1.50;99.90;;;;;;5039035;28;20041;-47
2023/03/09 04:52:45;;;;;;;25.70;17.57;;;1.50;99.90;;;;;;5046215;28;20029;-48
2023/03/09 04:55:10;;;;;;;25.27;17.75;;;1.50;99.90;;;;;;5044178;28;20613;-47
2023/03/09 04:57:36;;;;;;;30.63;19.27;;;1.50;99.90;;;;;;5044766;28;20072;-46
2023/03/09 05:00:04;;;;;;;28.10;18.47;;;1.50;99.90;;;;;;5034050;28;20044;-47
2023/03/09 05:02:30;;;;;;;30.10;19.52;;;1.50;99.90;;;;;;5036990;28;20326;-48
2023/03/09 05:04:56;;;;;;;26.58;17.83;;;1.50;99.90;;;;;;5033643;28;20042;-46
2023/03/09 05:07:22;;;;;;;29.30;18.90;;;1.50;99.90;;;;;;5043002;28;20043;-47
2023/03/09 05:09:48;;;;;;;26.60;17.98;;;1.50;99.90;;;;;;5043072;28;20124;-48
2023/03/09 05:12:14;;;;;;;27.35;17.33;;;1.50;99.90;;;;;;5042599;28;20055;-48
2023/03/09 05:14:40;;;;;;;26.23;16.97;;;1.50;99.90;;;;;;5043509;28;20432;-47
2023/03/09 05:17:05;;;;;;;25.92;17.08;;;1.40;99.90;;;;;;5036195;28;20350;-47
2023/03/09 05:19:31;;;;;;;23.40;15.70;;;1.40;99.90;;;;;;5031905;28;20048;-46
2023/03/09 05:21:57;;;;;;;23.60;15.73;;;1.50;99.90;;;;;;5039918;28;20116;-47
2023/03/09 05:24:23;;;;;;;27.58;16.77;;;1.40;99.90;;;;;;5033278;28;20502;-49
2023/03/09 05:26:48;;;;;;;26.37;17.03;;;1.40;99.90;;;;;;5044775;28;20033;-48
2023/03/09 05:29:14;;;;;;;24.83;16.50;;;1.40;99.90;;;;;;5046180;28;20070;-48
2023/03/09 05:31:39;;;;;;;24.73;17.73;;;1.40;99.90;;;;;;5047443;28;20044;-48
2023/03/09 05:34:05;;;;;;;23.77;16.20;;;1.40;99.90;;;;;;5038778;28;20065;-48
2023/03/09 05:36:31;;;;;;;26.00;15.67;;;1.30;99.90;;;;;;5035716;28;20506;-48
2023/03/09 05:38:57;;;;;;;21.65;14.85;;;1.30;99.90;;;;;;5033403;28;20045;-47
2023/03/09 05:41:22;;;;;;;29.00;17.93;;;1.30;99.90;;;;;;5035200;28;20065;-48
2023/03/09 05:43:48;;;;;;;25.27;17.17;;;1.30;99.90;;;;;;5041252;28;20506;-47
2023/03/09 05:46:15;;;;;;;25.13;16.80;;;1.30;99.90;;;;;;5044416;28;20506;-47
2023/03/09 05:48:42;;;;;;;27.92;16.52;;;1.30;99.90;;;;;;5042950;28;20539;-48
2023/03/09 05:51:07;;;;;;;;;;;1.30;99.90;;;;;;5047832;28;20502;-46
2023/03/09 05:53:34;;;;;;;24.67;16.50;;;1.30;99.90;;;;;;5039235;28;19917;-47
2023/03/09 05:56:00;;;;;;;;;;;1.30;99.90;;;;;;5045673;28;20037;-48
2023/03/09 05:58:26;;;;;;;35.88;16.75;;;1.30;99.90;;;;;;5039941;28;19920;-48
2023/03/09 06:00:52;;;;;;;26.30;15.70;;;1.40;99.90;;;;;;5041357;28;20116;-47
2023/03/09 06:03:19;;;;;;;27.80;18.25;;;1.30;99.90;;;;;;5038979;28;20040;-47
2023/03/09 06:05:45;;;;;;;25.75;17.38;;;1.30;99.90;;;;;;5033827;28;20538;-47
2023/03/09 06:08:11;;;;;;;24.15;17.30;;;1.40;99.90;;;;;;5042534;28;20060;-48
2023/03/09 06:10:36;;;;;;;29.08;18.35;;;1.30;99.90;;;;;;5043315;28;20037;-47
2023/03/09 06:13:02;;;;;;;28.45;18.40;;;1.40;99.90;;;;;;5034733;28;20048;-48
2023/03/09 06:15:27;;;;;;;26.03;16.47;;;1.40;99.90;;;;;;5034503;28;20053;-47
2023/03/09 06:17:53;;;;;;;28.00;17.27;;;1.40;99.90;;;;;;5043559;28;20410;-47
2023/03/09 06:20:20;;;;;;;26.80;18.50;;;1.40;99.90;;;;;;5045915;28;20135;-48
2023/03/09 06:22:45;;;;;;;;;;;1.40;99.90;;;;;;5048631;28;20052;-46
2023/03/09 06:25:11;;;;;;;24.98;15.95;;;1.40;99.90;;;;;;5046397;28;19921;-48
2023/03/09 06:27:37;;;;;;;24.77;16.75;;;1.40;99.90;;;;;;5041517;28;20025;-47
2023/03/09 06:30:03;;;;;;;27.60;17.15;;;1.40;99.90;;;;;;5034889;28;20037;-47
2023/03/09 06:32:32;;;;;;;29.42;18.90;;;1.50;99.90;;;;;;5034154;28;20544;-48
2023/03/09 06:34:58;;;;;;;28.60;18.50;;;1.50;99.90;;;;;;5032222;28;20411;-47
2023/03/09 06:37:24;;;;;;;29.10;18.45;;;1.50;99.90;;;;;;5031503;28;20033;-48
2023/03/09 06:39:50;;;;;;;29.27;18.90;;;1.50;99.90;;;;;;5041888;28;20086;-47
2023/03/09 06:42:15;;;;;;;33.33;19.97;;;1.50;99.90;;;;;;5038992;28;20033;-47
2023/03/09 06:44:42;;;;;;;28.53;18.70;;;1.50;99.90;;;;;;5043177;28;20166;-48
2023/03/09 06:47:09;;;;;;;28.85;19.08;;;1.50;99.90;;;;;;5048213;28;20534;-47
2023/03/09 06:49:35;;;;;;;29.77;19.58;;;1.50;99.90;;;;;;5039335;28;20113;-48
2023/03/09 06:52:00;;;;;;;27.85;18.92;;;1.60;99.90;;;;;;5033466;28;20112;-47
2023/03/09 06:54:26;;;;;;;28.83;18.73;;;1.60;99.90;;;;;;5035002;28;20045;-49
2023/03/09 06:56:52;;;;;;;28.50;18.30;;;1.60;99.90;;;;;;5044667;28;20356;-48
2023/03/09 06:59:18;;;;;;;29.80;19.38;;;1.60;99.90;;;;;;5042401;28;20040;-47
2023/03/09 07:01:43;;;;;;;30.50;19.83;;;1.60;99.90;;;;;;5047872;28;20040;-48
2023/03/09 07:04:09;;;;;;;28.23;19.33;;;1.60;99.90;;;;;;5048129;28;20581;-47
2023/03/09 07:06:35;;;;;;;29.30;18.73;;;1.60;99.90;;;;;;5040846;28;20044;-47
2023/03/09 07:09:00;;;;;;;31.07;20.60;;;1.60;99.90;;;;;;5033626;28;20029;-47
2023/03/09 07:11:26;;;;;;;32.53;21.60;;;1.70;99.90;;;;;;5045756;28;20037;-47
2023/03/09 07:13:51;;;;;;;32.03;19.83;;;1.70;99.90;;;;;;5045481;28;20150;-48
2023/03/09 07:16:17;;;;;;;29.90;18.87;;;1.70;99.90;;;;;;5041968;28;20060;-48
2023/03/09 07:18:42;;;;;;;29.30;19.63;;;1.80;99.90;;;;;;5036454;28;20852;-47
2023/03/09 07:21:09;;;;;;;31.53;19.80;;;1.80;99.90;;;;;;5032279;28;20108;-46
2023/03/09 07:23:35;;;;;;;29.98;20.58;;;1.90;99.90;;;;;;5031375;28;20029;-48
2023/03/09 07:26:02;;;;;;;26.02;18.77;;;1.90;99.90;;;;;;5038362;28;20075;-48
2023/03/09 07:28:28;;;;;;;27.17;19.23;;;1.90;99.90;;;;;;5044597;28;20041;-48
2023/03/09 07:30:54;;;;;;;28.42;19.10;;;1.90;99.90;;;;;;5045962;28;20071;-46
2023/03/09 07:33:20;;;;;;;29.53;18.73;;;2.00;99.90;;;;;;5043279;28;20033;-48
2023/03/09 07:35:45;;;;;;;25.07;17.03;;;2.00;99.90;;;;;;5039660;28;20128;-47
2023/03/09 07:38:11;;;;;;;26.87;18.23;;;2.00;99.90;;;;;;5035357;28;20390;-48
2023/03/09 07:40:36;;;;;;;27.83;19.03;;;2.00;99.90;;;;;;5037386;28;20034;-48
2023/03/09 07:43:02;;;;;;;25.47;18.63;;;2.00;99.90;;;;;;5032995;28;20531;-48
2023/03/09 07:45:28;;;;;;;28.05;18.00;;;2.00;99.90;;;;;;5035266;28;20063;-48
2023/03/09 07:47:54;;;;;;;27.07;18.13;;;2.00;99.90;;;;;;5042456;28;20045;-47
2023/03/09 07:50:20;;;;;;;28.90;19.48;;;2.00;99.90;;;;;;5041937;28;20087;-48
2023/03/09 07:52:46;;;;;;;25.40;17.80;;;2.10;99.90;;;;;;5043912;28;20044;-47
2023/03/09 07:55:12;;;;;;;;;;;2.10;99.90;;;;;;5035909;28;20687;-47
2023/03/09 07:57:39;;;;;;;27.15;15.57;;;2.20;99.90;;;;;;5043277;28;19928;-48
2023/03/09 08:00:10;;;;;;;29.13;19.52;;;2.20;99.90;;;;;;5046329;28;20390;-48
2023/03/09 08:02:36;;;;;;;28.25;18.85;;;2.30;99.90;;;;;;5045735;28;20418;-47
2023/03/09 08:05:02;;;;;;;30.17;19.47;;;2.30;99.90;;;;;;5033996;28;20045;-48
2023/03/09 08:07:27;;;;;;;56.37;19.83;;;2.40;99.90;;;;;;5035683;28;20029;-49
2023/03/09 08:09:53;;;;;;;34.20;19.17;;;2.40;99.90;;;;;;5044412;28;20042;-48
2023/03/09 08:12:18;;;;;;;37.30;19.27;;;2.40;99.90;;;;;;5044565;28;20043;-48
2023/03/09 08:14:44;;;;;;;30.73;19.20;;;2.40;99.90;;;;;;5045816;28;21199;-48
2023/03/09 08:17:09;;;;;;;35.73;22.13;;;2.40;99.90;;;;;;5031696;28;20068;-49
2023/03/09 08:19:35;;;;;;;35.63;20.57;;;2.40;99.90;;;;;;5036594;28;20033;-48
2023/03/09 08:22:01;;;;;;;26.60;18.10;;;2.40;99.90;;;;;;5042395;28;20120;-48
2023/03/09 08:24:27;;;;;;;31.43;21.13;;;2.40;99.90;;;;;;5038405;28;20047;-47
2023/03/09 08:26:53;;;;;;;;;;;2.50;99.90;;;;;;5032990;28;20361;-46
2023/03/09 08:29:19;;;;;;;30.50;18.13;;;2.50;99.90;;;;;;5030830;28;19960;-50
2023/03/09 08:31:44;;;;;;;27.27;17.83;;;2.60;99.90;;;;;;5040804;28;20026;-47
2023/03/09 08:34:10;;;;;;;25.40;17.43;;;2.60;99.90;;;;;;5031637;28;20032;-47
2023/03/09 08:36:36;;;;;;;26.02;18.45;;;2.70;99.90;;;;;;5036334;28;20083;-47
2023/03/09 08:39:02;;;;;;;32.60;20.30;;;2.70;99.90;;;;;;5040584;28;20438;-48
2023/03/09 08:41:27;;;;;;;27.10;17.33;;;2.70;99.90;;;;;;5041817;28;20037;-45
2023/03/09 08:43:54;;;;;;;29.30;18.03;;;2.80;99.90;;;;;;5042922;28;20090;-47
2023/03/09 08:46:20;;;;;;;29.48;17.60;;;2.80;99.90;;;;;;5040167;28;20073;-47
2023/03/09 08:48:48;;;;;;;33.33;18.20;;;2.90;99.90;;;;;;5034923;28;20111;-48
2023/03/09 08:51:14;;;;;;;27.98;19.65;;;2.90;99.90;;;;;;5038630;28;20490;-48
2023/03/09 08:53:39;;;;;;;31.00;19.42;;;2.90;99.90;;;;;;5043488;28;20041;-47
2023/03/09 08:56:07;;;;;;;27.10;17.70;;;2.90;99.90;;;;;;5041368;28;20595;-48
2023/03/09 08:58:33;;;;;;;30.75;18.08;;;2.90;99.90;;;;;;5039701;28;20056;-49
2023/03/09 09:01:00;;;;;;;28.98;19.10;;;2.90;99.90;;;;;;5035926;28;20037;-47
2023/03/09 09:03:28;;;;;;;27.48;18.40;;;3.00;99.90;;;;;;5038094;28;20091;-48
2023/03/09 09:05:54;;;;;;;25.50;16.35;;;3.00;99.90;;;;;;5044789;28;20041;-47
2023/03/09 09:08:19;;;;;;;24.83;16.83;;;3.00;99.90;;;;;;5038780;28;20414;-48
2023/03/09 09:10:45;;;;;;;28.30;19.30;;;3.00;99.90;;;;;;5041520;28;20478;-48
2023/03/09 09:13:11;;;;;;;28.07;19.40;;;2.90;99.90;;;;;;5039028;28;20116;-47
2023/03/09 09:15:39;;;;;;;27.23;18.35;;;3.00;99.90;;;;;;5033657;28;20037;-48
2023/03/09 09:18:05;;;;;;;29.05;17.23;;;2.90;99.90;;;;;;5039996;28;20092;-48
2023/03/09 09:20:31;;;;;;;27.13;18.35;;;3.00;99.90;;;;;;5050490;28;20281;-48
2023/03/09 09:22:57;;;;;;;27.33;17.13;;;3.00;99.90;;;;;;5045728;28;20083;-48
2023/03/09 09:25:22;;;;;;;25.83;17.93;;;3.00;99.90;;;;;;5041580;28;20064;-48
2023/03/09 09:27:51;;;;;;;27.47;18.27;;;3.00;99.90;;;;;;5043006;28;20037;-47
2023/03/09 09:30:18;;;;;;;25.60;17.65;;;3.10;99.90;;;;;;5039901;28;20038;-48
2023/03/09 09:32:45;;;;;;;25.10;16.52;;;3.10;99.90;;;;;;5035685;28;20037;-48
2023/03/09 09:35:11;;;;;;;25.08;17.02;;;3.10;99.90;;;;;;5046528;28;20041;-47
2023/03/09 09:37:37;;;;;;;25.88;18.35;;;3.10;99.90;;;;;;5039281;28;20064;-48
2023/03/09 09:40:04;;;;;;;27.65;17.13;;;3.20;99.90;;;;;;5036924;28;20029;-48
2023/03/09 09:42:35;;;;;;;;;;;3.20;99.90;;;;;;5038236;28;20069;-48
2023/03/09 09:45:04;;;;;;;30.77;18.77;;;3.20;99.90;;;;;;5046546;28;21659;-48
2023/03/09 09:47:32;;;;;;;26.95;17.70;;;3.30;99.90;;;;;;5043943;28;20098;-47
2023/03/09 09:50:00;;;;;;;27.55;18.15;;;3.30;99.90;;;;;;5036696;28;20114;-47
2023/03/09 09:52:51;;;;;;;29.08;19.35;;;3.30;99.90;;;;;;5040930;28;20534;-49
2023/03/09 09:55:25;;;;;;;27.88;19.25;;;3.20;99.90;;;;;;5044512;28;20041;-47
2023/03/09 09:58:15;;;;;;;26.85;18.67;;;3.30;99.90;;;;;;5037785;28;20088;-47
2023/03/09 10:00:49;;;;;;;28.13;18.20;;;3.30;99.90;;;;;;5037588;28;20069;-46
2023/03/09 10:03:25;;;;;;;25.55;17.83;;;3.30;99.90;;;;;;5033293;28;20049;-48
2023/03/09 10:06:20;;;;;;;30.77;19.70;;;3.30;99.90;;;;;;5033522;28;20545;-48
2023/03/09 10:09:01;;;;;;;27.27;17.98;;;3.30;99.90;;;;;;5036075;28;20037;-48
2023/03/09 10:11:31;;;;;;;28.42;19.40;;;3.30;99.90;;;;;;5038225;28;20042;-48
2023/03/09 10:14:20;;;;;;;27.25;19.45;;;3.30;99.90;;;;;;5033852;28;20037;-49
2023/03/09 10:16:54;;;;;;;28.00;19.33;;;3.30;99.90;;;;;;5045779;28;20052;-48
2023/03/09 10:19:31;;;;;;;28.60;20.00;;;3.30;99.90;;;;;;5043669;28;20507;-48
2023/03/09 10:21:59;;;;;;;28.30;19.67;;;3.20;99.90;;;;;;5044490;28;20036;-49
2023/03/09 10:24:34;;;;;;;26.15;18.98;;;3.20;99.90;;;;;;5046328;28;20041;-47
2023/03/09 10:27:30;;;;;;;33.47;20.15;;;3.20;99.90;;;;;;5036791;28;20053;-48
2023/03/09 10:30:18;;;;;;;26.90;17.85;;;3.20;99.90;;;;;;5033623;28;20057;-48
2023/03/09 10:32:50;;;;;;;27.15;18.40;;;3.20;99.90;;;;;;5033461;28;20041;-49
2023/03/09 10:35:21;;;;;;;27.55;19.17;;;3.20;99.90;;;;;;5037764;28;20045;-48
2023/03/09 10:37:49;;;;;;;25.60;18.55;;;3.30;99.90;;;;;;5034398;28;20045;-48
2023/03/09 10:40:25;;;;;;;28.77;19.23;;;3.20;99.90;;;;;;5040978;28;20029;-49
2023/03/09 10:42:51;;;;;;;26.85;19.33;;;3.20;99.90;;;;;;5043883;28;20426;-48
2023/03/09 10:45:27;;;;;;;24.58;16.83;;;3.10;99.90;;;;;;5033146;28;20041;-46
2023/03/09 10:48:04;;;;;;;23.50;17.20;;;3.20;99.90;;;;;;5031286;28;20196;-48
2023/03/09 10:50:40;;;;;;;26.52;18.70;;;3.20;99.90;;;;;;5046143;28;20442;-48
2023/03/09 10:53:48;;;;;;;26.48;18.10;;;3.20;99.90;;;;;;5045338;28;20032;-48
2023/03/09 10:56:28;;;;;;;24.90;17.02;;;3.20;99.90;;;;;;5044210;28;20044;-49
2023/03/09 10:59:06;;;;;;;28.85;18.83;;;3.30;99.90;;;;;;5034629;28;20041;-48
2023/03/09 11:01:35;;;;;;;27.92;19.52;;;3.30;99.90;;;;;;5030689;28;20045;-48
2023/03/09 11:04:01;;;;;;;24.02;17.10;;;3.40;99.90;;;;;;5031581;28;20059;-48
2023/03/09 11:06:34;;;;;;;27.33;19.65;;;3.50;99.90;;;;;;5033481;28;20406;-48
2023/03/09 11:09:13;;;;;;;29.35;19.00;;;3.50;99.90;;;;;;5034159;28;20049;-48
2023/03/09 11:11:40;;;;;;;32.00;19.15;;;3.50;99.90;;;;;;5044696;28;20037;-49
2023/03/09 11:14:29;;;;;;;26.27;17.42;;;3.60;99.90;;;;;;5044978;28;20045;-49
2023/03/09 11:17:00;;;;;;;29.40;18.42;;;3.60;99.90;;;;;;5041409;28;20457;-48
2023/03/09 11:19:27;;;;;;;29.77;18.58;;;3.60;99.90;;;;;;5032375;28;20041;-48
2023/03/09 11:21:56;;;;;;;24.80;18.30;;;3.60;99.90;;;;;;5033948;28;20110;-47
2023/03/09 11:24:26;;;;;;;26.20;18.10;;;3.60;99.90;;;;;;5037419;28;20049;-48
2023/03/09 11:27:23;;;;;;;25.95;18.35;;;3.60;99.90;;;;;;5039813;28;20069;-48
2023/03/09 11:30:13;;;;;;;25.52;18.17;;;3.60;99.90;;;;;;5037121;28;20036;-48
2023/03/09 11:32:39;;;;;;;25.00;17.52;;;3.60;99.90;;;;;;5035758;28;20416;-48
2023/03/09 11:35:05;;;;;;;;;;;3.60;99.90;;;;;;5032577;28;20041;-48
2023/03/09 11:37:40;;;;;;;28.25;18.77;;;3.60;99.90;;;;;;5030974;28;19921;-49
2023/03/09 11:40:24;;;;;;;26.27;18.10;;;3.60;99.90;;;;;;5032588;28;20060;-47
2023/03/09 11:43:00;;;;;;;26.33;18.77;;;3.60;99.90;;;;;;5033868;28;20041;-47
2023/03/09 11:45:29;;;;;;;26.65;18.27;;;3.70;99.90;;;;;;5045105;28;20483;-47
2023/03/09 11:48:15;;;;;;;25.23;17.88;;;3.70;99.90;;;;;;5043768;28;20036;-47
2023/03/09 11:50:57;;;;;;;24.45;17.92;;;3.70;99.90;;;;;;5035530;28;20033;-48
2023/03/09 11:53:37;;;;;;;24.00;17.60;;;3.80;99.90;;;;;;5042075;28;20076;-48
2023/03/09 11:56:27;;;;;;;24.98;17.25;;;3.80;99.90;;;;;;5042965;28;20049;-47
2023/03/09 11:59:16;;;;;;;24.67;17.70;;;3.70;99.90;;;;;;5037494;28;20123;-47
2023/03/09 12:02:10;;;;;;;24.05;17.52;;;3.70;99.90;;;;;;5046119;28;20076;-48
2023/03/09 12:04:36;;;;;;;26.73;18.17;;;3.70;99.90;;;;;;5042699;28;20077;-53
2023/03/09 12:07:15;;;;;;;25.97;18.40;;;3.70;99.90;;;;;;5033625;28;20114;-51
2023/03/09 12:10:10;;;;;;;30.90;19.10;;;3.70;99.90;;;;;;5031883;28;21272;-49
2023/03/09 12:12:51;;;;;;;26.98;17.88;;;3.70;99.90;;;;;;5009479;28;20054;-52
2023/03/09 12:15:37;;;;;;;27.10;19.92;;;3.70;99.90;;;;;;5031837;28;20625;-51
2023/03/09 12:18:06;;;;;;;26.25;18.83;;;3.70;99.90;;;;;;5041824;28;20512;-51
2023/03/09 12:20:41;;;;;;;25.42;18.67;;;3.70;99.90;;;;;;5044738;28;20276;-51
2023/03/09 12:23:35;;;;;;;27.52;19.67;;;3.70;99.90;;;;;;5033252;28;20080;-51
2023/03/09 12:26:31;;;;;;;25.15;17.55;;;3.70;99.90;;;;;;5030352;28;20049;-48
2023/03/09 12:29:01;;;;;;;33.90;21.95;;;3.80;99.90;;;;;;5034054;28;20146;-48
2023/03/09 12:31:36;;;;;;;27.58;18.73;;;3.80;99.90;;;;;;5047958;28;20032;-48
2023/03/09 12:34:05;;;;;;;28.08;20.58;;;3.80;99.90;;;;;;5048760;28;20045;-48
2023/03/09 12:36:40;;;;;;;28.15;20.42;;;3.80;99.90;;;;;;5040381;28;20120;-47
2023/03/09 12:39:28;;;;;;;27.15;19.40;;;3.80;99.90;;;;;;5048689;28;20044;-48
2023/03/09 12:42:00;;;;;;;29.23;18.80;;;3.80;99.90;;;;;;5048701;28;20033;-49
2023/03/09 12:44:47;;;;;;;29.83;20.30;;;3.80;99.90;;;;;;5046880;28;20048;-47
2023/03/09 12:47:49;;;;;;;29.33;20.38;;;3.80;99.90;;;;;;5049287;28;20483;-49
2023/03/09 12:50:45;;;;;;;29.90;19.92;;;3.80;99.90;;;;;;5048238;28;20478;-52
2023/03/09 12:53:12;;;;;;;27.13;19.23;;;3.90;99.90;;;;;;5036037;28;20044;-49